sensor_id;sensor_type;location;lat;lon;timestamp;P1;durP1;ratioP1;P2;durP2;ratioP2
54197;SDS011;40105;52.366;17.000;2023-04-28T00:00:28;57.97;;;17.57;;
54197;SDS011;40105;52.366;17.000;2023-04-28T00:02:54;63.00;;;21.87;;
54197;SDS011;40105;52.366;17.000;2023-04-28T00:05:19;61.40;;;19.47;;
54197;SDS011;40105;52.366;17.000;2023-04-28T00:07:45;59.00;;;19.33;;
54197;SDS011;40105;52.366;17.000;2023-04-28T00:10:10;59.75;;;19.15;;
54197;SDS011;40105;52.366;17.000;2023-04-28T00:12:35;77.18;;;20.27;;
54197;SDS011;40105;52.366;17.000;2023-04-28T00:15:01;55.20;;;17.60;;
54197;SDS011;40105;52.366;17.000;2023-04-28T00:17:26;55.27;;;17.63;;
54197;SDS011;40105;52.366;17.000;2023-04-28T00:19:51;68.93;;;19.00;;
54197;SDS011;40105;52.366;17.000;2023-04-28T00:22:17;61.95;;;19.88;;
54197;SDS011;40105;52.366;17.000;2023-04-28T00:24:42;76.00;;;21.35;;
54197;SDS011;40105;52.366;17.000;2023-04-28T00:27:07;59.53;;;19.33;;
54197;SDS011;40105;52.366;17.000;2023-04-28T00:29:33;61.07;;;18.73;;
54197;SDS011;40105;52.366;17.000;2023-04-28T00:31:58;65.03;;;19.63;;
54197;SDS011;40105;52.366;17.000;2023-04-28T00:34:23;72.15;;;19.67;;
54197;SDS011;40105;52.366;17.000;2023-04-28T00:36:48;60.97;;;19.37;;
54197;SDS011;40105;52.366;17.000;2023-04-28T00:39:14;66.70;;;22.15;;
54197;SDS011;40105;52.366;17.000;2023-04-28T00:41:40;49.25;;;19.83;;
54197;SDS011;40105;52.366;17.000;2023-04-28T00:44:05;57.80;;;19.80;;
54197;SDS011;40105;52.366;17.000;2023-04-28T00:46:30;58.50;;;19.67;;
54197;SDS011;40105;52.366;17.000;2023-04-28T00:48:57;56.25;;;19.40;;
54197;SDS011;40105;52.366;17.000;2023-04-28T00:51:22;51.60;;;18.60;;
54197;SDS011;40105;52.366;17.000;2023-04-28T00:53:47;52.08;;;19.35;;
54197;SDS011;40105;52.366;17.000;2023-04-28T00:56:12;50.23;;;19.03;;
54197;SDS011;40105;52.366;17.000;2023-04-28T00:58:38;53.75;;;20.13;;
54197;SDS011;40105;52.366;17.000;2023-04-28T01:01:03;83.03;;;22.65;;
54197;SDS011;40105;52.366;17.000;2023-04-28T01:03:29;76.55;;;22.25;;
54197;SDS011;40105;52.366;17.000;2023-04-28T01:05:54;80.85;;;21.35;;
54197;SDS011;40105;52.366;17.000;2023-04-28T01:08:23;58.83;;;21.67;;
54197;SDS011;40105;52.366;17.000;2023-04-28T01:10:48;66.60;;;19.80;;
54197;SDS011;40105;52.366;17.000;2023-04-28T01:13:13;60.97;;;21.57;;
54197;SDS011;40105;52.366;17.000;2023-04-28T01:15:38;68.10;;;21.30;;
54197;SDS011;40105;52.366;17.000;2023-04-28T01:18:04;53.95;;;19.63;;
54197;SDS011;40105;52.366;17.000;2023-04-28T01:20:29;75.80;;;20.55;;
54197;SDS011;40105;52.366;17.000;2023-04-28T01:22:55;64.88;;;21.08;;
54197;SDS011;40105;52.366;17.000;2023-04-28T01:25:20;73.20;;;21.90;;
54197;SDS011;40105;52.366;17.000;2023-04-28T01:27:45;66.07;;;22.00;;
54197;SDS011;40105;52.366;17.000;2023-04-28T01:30:10;68.78;;;20.42;;
54197;SDS011;40105;52.366;17.000;2023-04-28T01:32:35;53.53;;;21.17;;
54197;SDS011;40105;52.366;17.000;2023-04-28T01:35:01;66.47;;;19.40;;
54197;SDS011;40105;52.366;17.000;2023-04-28T01:37:26;51.87;;;20.73;;
54197;SDS011;40105;52.366;17.000;2023-04-28T01:39:51;76.37;;;21.93;;
54197;SDS011;40105;52.366;17.000;2023-04-28T01:42:16;60.87;;;20.93;;
54197;SDS011;40105;52.366;17.000;2023-04-28T01:44:41;63.30;;;20.43;;
54197;SDS011;40105;52.366;17.000;2023-04-28T01:47:06;61.20;;;22.50;;
54197;SDS011;40105;52.366;17.000;2023-04-28T01:49:31;62.55;;;20.92;;
54197;SDS011;40105;52.366;17.000;2023-04-28T01:51:57;61.83;;;20.43;;
54197;SDS011;40105;52.366;17.000;2023-04-28T01:54:22;59.22;;;19.83;;
54197;SDS011;40105;52.366;17.000;2023-04-28T01:56:47;67.97;;;19.60;;
54197;SDS011;40105;52.366;17.000;2023-04-28T01:59:12;59.10;;;20.67;;
54197;SDS011;40105;52.366;17.000;2023-04-28T02:01:37;52.35;;;19.45;;
54197;SDS011;40105;52.366;17.000;2023-04-28T02:04:02;55.50;;;19.13;;
54197;SDS011;40105;52.366;17.000;2023-04-28T02:06:28;66.93;;;21.20;;
54197;SDS011;40105;52.366;17.000;2023-04-28T02:08:53;56.20;;;19.52;;
54197;SDS011;40105;52.366;17.000;2023-04-28T02:11:18;54.00;;;21.03;;
54197;SDS011;40105;52.366;17.000;2023-04-28T02:13:43;63.73;;;20.53;;
54197;SDS011;40105;52.366;17.000;2023-04-28T02:16:08;57.87;;;19.27;;
54197;SDS011;40105;52.366;17.000;2023-04-28T02:18:34;44.00;;;17.63;;
54197;SDS011;40105;52.366;17.000;2023-04-28T02:21:09;56.70;;;18.67;;
54197;SDS011;40105;52.366;17.000;2023-04-28T02:23:35;58.30;;;20.17;;
54197;SDS011;40105;52.366;17.000;2023-04-28T02:26:01;62.10;;;20.03;;
54197;SDS011;40105;52.366;17.000;2023-04-28T02:28:27;54.47;;;19.73;;
54197;SDS011;40105;52.366;17.000;2023-04-28T02:30:53;53.88;;;19.50;;
54197;SDS011;40105;52.366;17.000;2023-04-28T02:33:18;52.50;;;19.60;;
54197;SDS011;40105;52.366;17.000;2023-04-28T02:35:43;63.00;;;19.83;;
54197;SDS011;40105;52.366;17.000;2023-04-28T02:38:08;54.13;;;19.73;;
54197;SDS011;40105;52.366;17.000;2023-04-28T02:40:34;61.20;;;19.67;;
54197;SDS011;40105;52.366;17.000;2023-04-28T02:42:59;55.50;;;17.75;;
54197;SDS011;40105;52.366;17.000;2023-04-28T02:45:24;59.90;;;19.70;;
54197;SDS011;40105;52.366;17.000;2023-04-28T02:47:50;59.80;;;17.65;;
54197;SDS011;40105;52.366;17.000;2023-04-28T02:50:15;54.83;;;17.60;;
54197;SDS011;40105;52.366;17.000;2023-04-28T02:52:40;49.77;;;16.87;;
54197;SDS011;40105;52.366;17.000;2023-04-28T02:55:05;45.93;;;17.33;;
54197;SDS011;40105;52.366;17.000;2023-04-28T02:57:31;52.15;;;18.08;;
54197;SDS011;40105;52.366;17.000;2023-04-28T02:59:56;60.10;;;18.03;;
54197;SDS011;40105;52.366;17.000;2023-04-28T03:02:21;49.58;;;16.02;;
54197;SDS011;40105;52.366;17.000;2023-04-28T03:04:46;64.03;;;17.30;;
54197;SDS011;40105;52.366;17.000;2023-04-28T03:07:12;45.27;;;17.20;;
54197;SDS011;40105;52.366;17.000;2023-04-28T03:09:37;41.13;;;16.70;;
54197;SDS011;40105;52.366;17.000;2023-04-28T03:12:02;49.20;;;17.03;;
54197;SDS011;40105;52.366;17.000;2023-04-28T03:14:27;44.45;;;17.30;;
54197;SDS011;40105;52.366;17.000;2023-04-28T03:16:53;47.43;;;17.43;;
54197;SDS011;40105;52.366;17.000;2023-04-28T03:19:18;52.78;;;18.70;;
54197;SDS011;40105;52.366;17.000;2023-04-28T03:21:43;55.47;;;18.10;;
54197;SDS011;40105;52.366;17.000;2023-04-28T03:24:08;41.50;;;16.90;;
54197;SDS011;40105;52.366;17.000;2023-04-28T03:26:33;46.07;;;16.43;;
54197;SDS011;40105;52.366;17.000;2023-04-28T03:28:58;62.93;;;20.93;;
54197;SDS011;40105;52.366;17.000;2023-04-28T03:31:24;44.60;;;18.17;;
54197;SDS011;40105;52.366;17.000;2023-04-28T03:33:49;47.33;;;15.00;;
54197;SDS011;40105;52.366;17.000;2023-04-28T03:36:14;34.88;;;16.08;;
54197;SDS011;40105;52.366;17.000;2023-04-28T03:38:40;47.80;;;17.83;;
54197;SDS011;40105;52.366;17.000;2023-04-28T03:41:05;38.40;;;15.65;;
54197;SDS011;40105;52.366;17.000;2023-04-28T03:43:30;49.30;;;14.82;;
54197;SDS011;40105;52.366;17.000;2023-04-28T03:45:57;45.30;;;15.00;;
54197;SDS011;40105;52.366;17.000;2023-04-28T03:48:22;40.30;;;14.17;;
54197;SDS011;40105;52.366;17.000;2023-04-28T03:50:47;40.57;;;13.57;;
54197;SDS011;40105;52.366;17.000;2023-04-28T03:53:12;34.05;;;16.02;;
54197;SDS011;40105;52.366;17.000;2023-04-28T03:55:37;47.47;;;14.03;;
54197;SDS011;40105;52.366;17.000;2023-04-28T03:58:02;47.20;;;15.30;;
54197;SDS011;40105;52.366;17.000;2023-04-28T04:00:28;42.93;;;14.27;;
54197;SDS011;40105;52.366;17.000;2023-04-28T04:02:53;33.63;;;14.47;;
54197;SDS011;40105;52.366;17.000;2023-04-28T04:05:18;42.80;;;14.65;;
54197;SDS011;40105;52.366;17.000;2023-04-28T04:07:43;39.55;;;14.90;;
54197;SDS011;40105;52.366;17.000;2023-04-28T04:10:09;28.23;;;13.18;;
54197;SDS011;40105;52.366;17.000;2023-04-28T04:12:34;40.22;;;14.80;;
54197;SDS011;40105;52.366;17.000;2023-04-28T04:14:59;42.97;;;15.77;;
54197;SDS011;40105;52.366;17.000;2023-04-28T04:17:24;42.40;;;16.00;;
54197;SDS011;40105;52.366;17.000;2023-04-28T04:19:50;37.90;;;15.50;;
54197;SDS011;40105;52.366;17.000;2023-04-28T04:22:15;40.63;;;15.97;;
54197;SDS011;40105;52.366;17.000;2023-04-28T04:24:40;35.50;;;15.97;;
54197;SDS011;40105;52.366;17.000;2023-04-28T04:27:05;37.10;;;14.90;;
54197;SDS011;40105;52.366;17.000;2023-04-28T04:29:31;43.87;;;16.47;;
54197;SDS011;40105;52.366;17.000;2023-04-28T04:31:56;58.30;;;16.80;;
54197;SDS011;40105;52.366;17.000;2023-04-28T04:34:21;39.73;;;16.00;;
54197;SDS011;40105;52.366;17.000;2023-04-28T04:36:46;45.53;;;16.13;;
54197;SDS011;40105;52.366;17.000;2023-04-28T04:39:11;38.07;;;17.13;;
54197;SDS011;40105;52.366;17.000;2023-04-28T04:41:37;42.85;;;15.10;;
54197;SDS011;40105;52.366;17.000;2023-04-28T04:44:02;49.53;;;17.30;;
54197;SDS011;40105;52.366;17.000;2023-04-28T04:46:28;47.78;;;16.58;;
54197;SDS011;40105;52.366;17.000;2023-04-28T04:48:53;50.90;;;17.87;;
54197;SDS011;40105;52.366;17.000;2023-04-28T04:51:18;43.83;;;16.50;;
54197;SDS011;40105;52.366;17.000;2023-04-28T04:53:43;47.23;;;19.57;;
54197;SDS011;40105;52.366;17.000;2023-04-28T04:56:09;41.15;;;16.25;;
54197;SDS011;40105;52.366;17.000;2023-04-28T04:58:34;63.77;;;19.10;;
54197;SDS011;40105;52.366;17.000;2023-04-28T05:00:59;49.47;;;19.70;;
54197;SDS011;40105;52.366;17.000;2023-04-28T05:03:25;48.30;;;20.33;;
54197;SDS011;40105;52.366;17.000;2023-04-28T05:05:50;50.22;;;18.27;;
54197;SDS011;40105;52.366;17.000;2023-04-28T05:08:15;45.60;;;19.10;;
54197;SDS011;40105;52.366;17.000;2023-04-28T05:10:40;63.87;;;19.17;;
54197;SDS011;40105;52.366;17.000;2023-04-28T05:13:05;49.30;;;20.80;;
54197;SDS011;40105;52.366;17.000;2023-04-28T05:15:31;43.22;;;19.33;;
54197;SDS011;40105;52.366;17.000;2023-04-28T05:17:56;57.83;;;20.58;;
54197;SDS011;40105;52.366;17.000;2023-04-28T05:20:22;49.85;;;21.77;;
54197;SDS011;40105;52.366;17.000;2023-04-28T05:22:47;51.10;;;19.85;;
54197;SDS011;40105;52.366;17.000;2023-04-28T05:25:12;52.90;;;20.27;;
54197;SDS011;40105;52.366;17.000;2023-04-28T05:27:37;53.53;;;19.93;;
54197;SDS011;40105;52.366;17.000;2023-04-28T05:30:05;58.28;;;19.15;;
54197;SDS011;40105;52.366;17.000;2023-04-28T05:32:31;53.33;;;19.05;;
54197;SDS011;40105;52.366;17.000;2023-04-28T05:34:56;49.90;;;19.47;;
54197;SDS011;40105;52.366;17.000;2023-04-28T05:37:21;41.93;;;16.87;;
54197;SDS011;40105;52.366;17.000;2023-04-28T05:39:47;52.57;;;18.87;;
54197;SDS011;40105;52.366;17.000;2023-04-28T05:42:12;46.47;;;19.13;;
54197;SDS011;40105;52.366;17.000;2023-04-28T05:44:37;45.77;;;17.40;;
54197;SDS011;40105;52.366;17.000;2023-04-28T05:47:02;41.73;;;18.40;;
54197;SDS011;40105;52.366;17.000;2023-04-28T05:49:27;62.87;;;19.07;;
54197;SDS011;40105;52.366;17.000;2023-04-28T05:51:52;42.17;;;17.50;;
54197;SDS011;40105;52.366;17.000;2023-04-28T05:54:18;49.40;;;17.83;;
54197;SDS011;40105;52.366;17.000;2023-04-28T05:56:43;56.50;;;17.17;;
54197;SDS011;40105;52.366;17.000;2023-04-28T05:59:08;40.80;;;15.17;;
54197;SDS011;40105;52.366;17.000;2023-04-28T06:01:34;30.27;;;14.43;;
54197;SDS011;40105;52.366;17.000;2023-04-28T06:03:59;41.22;;;14.75;;
54197;SDS011;40105;52.366;17.000;2023-04-28T06:06:24;25.07;;;12.97;;
54197;SDS011;40105;52.366;17.000;2023-04-28T06:08:50;28.47;;;11.37;;
54197;SDS011;40105;52.366;17.000;2023-04-28T06:11:15;34.67;;;11.40;;
54197;SDS011;40105;52.366;17.000;2023-04-28T06:13:40;38.80;;;11.10;;
54197;SDS011;40105;52.366;17.000;2023-04-28T06:16:06;26.10;;;10.87;;
54197;SDS011;40105;52.366;17.000;2023-04-28T06:18:31;20.08;;;8.07;;
54197;SDS011;40105;52.366;17.000;2023-04-28T06:20:56;28.08;;;9.10;;
54197;SDS011;40105;52.366;17.000;2023-04-28T06:23:22;20.20;;;9.53;;
54197;SDS011;40105;52.366;17.000;2023-04-28T06:25:47;20.80;;;8.33;;
54197;SDS011;40105;52.366;17.000;2023-04-28T06:28:12;27.60;;;9.57;;
54197;SDS011;40105;52.366;17.000;2023-04-28T06:30:38;24.23;;;10.13;;
54197;SDS011;40105;52.366;17.000;2023-04-28T06:33:04;20.70;;;8.40;;
54197;SDS011;40105;52.366;17.000;2023-04-28T06:35:29;27.60;;;10.30;;
54197;SDS011;40105;52.366;17.000;2023-04-28T06:37:54;21.33;;;10.23;;
54197;SDS011;40105;52.366;17.000;2023-04-28T06:40:19;21.23;;;9.63;;
54197;SDS011;40105;52.366;17.000;2023-04-28T06:42:45;18.30;;;8.90;;
54197;SDS011;40105;52.366;17.000;2023-04-28T06:45:10;21.97;;;9.03;;
54197;SDS011;40105;52.366;17.000;2023-04-28T06:47:35;27.90;;;7.85;;
54197;SDS011;40105;52.366;17.000;2023-04-28T06:50:01;15.95;;;7.72;;
54197;SDS011;40105;52.366;17.000;2023-04-28T06:52:26;18.75;;;8.02;;
54197;SDS011;40105;52.366;17.000;2023-04-28T06:54:53;21.05;;;8.55;;
54197;SDS011;40105;52.366;17.000;2023-04-28T06:57:18;22.37;;;8.03;;
54197;SDS011;40105;52.366;17.000;2023-04-28T06:59:45;22.65;;;7.55;;
54197;SDS011;40105;52.366;17.000;2023-04-28T07:02:10;15.65;;;6.75;;
54197;SDS011;40105;52.366;17.000;2023-04-28T07:04:35;19.53;;;7.47;;
54197;SDS011;40105;52.366;17.000;2023-04-28T07:07:00;15.43;;;6.93;;
54197;SDS011;40105;52.366;17.000;2023-04-28T07:09:26;20.13;;;7.07;;
54197;SDS011;40105;52.366;17.000;2023-04-28T07:11:51;15.33;;;6.90;;
54197;SDS011;40105;52.366;17.000;2023-04-28T07:14:16;25.63;;;6.63;;
54197;SDS011;40105;52.366;17.000;2023-04-28T07:16:41;14.83;;;6.20;;
54197;SDS011;40105;52.366;17.000;2023-04-28T07:19:07;17.67;;;5.93;;
54197;SDS011;40105;52.366;17.000;2023-04-28T07:21:32;15.87;;;4.90;;
54197;SDS011;40105;52.366;17.000;2023-04-28T07:23:58;16.98;;;5.38;;
54197;SDS011;40105;52.366;17.000;2023-04-28T07:26:23;14.27;;;6.37;;
54197;SDS011;40105;52.366;17.000;2023-04-28T07:28:48;12.47;;;4.03;;
54197;SDS011;40105;52.366;17.000;2023-04-28T07:31:13;10.30;;;3.50;;
54197;SDS011;40105;52.366;17.000;2023-04-28T07:33:39;13.27;;;4.00;;
54197;SDS011;40105;52.366;17.000;2023-04-28T07:36:04;8.80;;;3.10;;
54197;SDS011;40105;52.366;17.000;2023-04-28T07:38:29;9.38;;;4.07;;
54197;SDS011;40105;52.366;17.000;2023-04-28T07:40:54;19.10;;;5.13;;
54197;SDS011;40105;52.366;17.000;2023-04-28T07:43:20;17.17;;;5.30;;
54197;SDS011;40105;52.366;17.000;2023-04-28T07:45:45;11.48;;;4.07;;
54197;SDS011;40105;52.366;17.000;2023-04-28T07:48:12;12.50;;;3.35;;
54197;SDS011;40105;52.366;17.000;2023-04-28T07:50:38;5.97;;;2.90;;
54197;SDS011;40105;52.366;17.000;2023-04-28T07:53:03;8.17;;;2.97;;
54197;SDS011;40105;52.366;17.000;2023-04-28T07:55:28;14.70;;;3.73;;
54197;SDS011;40105;52.366;17.000;2023-04-28T07:57:53;16.52;;;4.05;;
54197;SDS011;40105;52.366;17.000;2023-04-28T08:00:19;13.00;;;4.22;;
54197;SDS011;40105;52.366;17.000;2023-04-28T08:02:44;11.73;;;3.47;;
54197;SDS011;40105;52.366;17.000;2023-04-28T08:05:09;7.37;;;3.00;;
54197;SDS011;40105;52.366;17.000;2023-04-28T08:07:35;12.90;;;3.55;;
54197;SDS011;40105;52.366;17.000;2023-04-28T08:10:01;12.63;;;3.30;;
54197;SDS011;40105;52.366;17.000;2023-04-28T08:12:26;5.40;;;3.20;;
54197;SDS011;40105;52.366;17.000;2023-04-28T08:14:52;7.18;;;3.25;;
54197;SDS011;40105;52.366;17.000;2023-04-28T08:17:17;8.63;;;3.20;;
54197;SDS011;40105;52.366;17.000;2023-04-28T08:19:42;13.83;;;3.43;;
54197;SDS011;40105;52.366;17.000;2023-04-28T08:22:10;21.45;;;2.90;;
54197;SDS011;40105;52.366;17.000;2023-04-28T08:24:35;16.20;;;3.90;;
54197;SDS011;40105;52.366;17.000;2023-04-28T08:27:00;17.07;;;3.30;;
54197;SDS011;40105;52.366;17.000;2023-04-28T08:29:27;5.38;;;3.00;;
54197;SDS011;40105;52.366;17.000;2023-04-28T08:31:52;9.65;;;3.50;;
54197;SDS011;40105;52.366;17.000;2023-04-28T08:34:17;13.25;;;3.42;;
54197;SDS011;40105;52.366;17.000;2023-04-28T08:36:43;6.78;;;3.78;;
54197;SDS011;40105;52.366;17.000;2023-04-28T08:39:08;9.53;;;4.37;;
54197;SDS011;40105;52.366;17.000;2023-04-28T08:41:33;11.13;;;3.97;;
54197;SDS011;40105;52.366;17.000;2023-04-28T08:44:01;14.00;;;3.75;;
54197;SDS011;40105;52.366;17.000;2023-04-28T08:46:26;10.48;;;3.95;;
54197;SDS011;40105;52.366;17.000;2023-04-28T08:48:51;13.13;;;4.35;;
54197;SDS011;40105;52.366;17.000;2023-04-28T08:51:24;23.88;;;5.18;;
54197;SDS011;40105;52.366;17.000;2023-04-28T08:53:52;11.60;;;3.85;;
54197;SDS011;40105;52.366;17.000;2023-04-28T08:56:18;16.92;;;4.88;;
54197;SDS011;40105;52.366;17.000;2023-04-28T08:58:45;22.08;;;5.13;;
54197;SDS011;40105;52.366;17.000;2023-04-28T09:01:10;15.67;;;4.90;;
54197;SDS011;40105;52.366;17.000;2023-04-28T09:03:35;13.67;;;4.40;;
54197;SDS011;40105;52.366;17.000;2023-04-28T09:06:01;24.50;;;4.97;;
54197;SDS011;40105;52.366;17.000;2023-04-28T09:08:26;10.20;;;4.10;;
54197;SDS011;40105;52.366;17.000;2023-04-28T09:11:07;10.95;;;4.50;;
54197;SDS011;40105;52.366;17.000;2023-04-28T09:15:59;12.00;;;5.97;;
54197;SDS011;40105;52.366;17.000;2023-04-28T09:18:24;13.80;;;4.80;;
54197;SDS011;40105;52.366;17.000;2023-04-28T09:20:49;21.97;;;5.90;;
54197;SDS011;40105;52.366;17.000;2023-04-28T09:23:17;10.55;;;4.72;;
54197;SDS011;40105;52.366;17.000;2023-04-28T09:26:01;16.20;;;5.80;;
54197;SDS011;40105;52.366;17.000;2023-04-28T09:28:26;28.33;;;5.10;;
54197;SDS011;40105;52.366;17.000;2023-04-28T09:30:52;12.43;;;4.25;;
54197;SDS011;40105;52.366;17.000;2023-04-28T09:33:17;16.05;;;5.30;;
54197;SDS011;40105;52.366;17.000;2023-04-28T09:35:43;12.25;;;5.43;;
54197;SDS011;40105;52.366;17.000;2023-04-28T09:38:09;22.58;;;5.07;;
54197;SDS011;40105;52.366;17.000;2023-04-28T09:43:21;14.60;;;5.75;;
54197;SDS011;40105;52.366;17.000;2023-04-28T09:45:47;19.00;;;5.97;;
54197;SDS011;40105;52.366;17.000;2023-04-28T09:48:12;12.20;;;5.03;;
54197;SDS011;40105;52.366;17.000;2023-04-28T09:50:38;14.45;;;6.18;;
54197;SDS011;40105;52.366;17.000;2023-04-28T09:53:04;11.80;;;5.00;;
54197;SDS011;40105;52.366;17.000;2023-04-28T09:55:29;26.17;;;7.32;;
54197;SDS011;40105;52.366;17.000;2023-04-28T09:57:56;16.83;;;5.47;;
54197;SDS011;40105;52.366;17.000;2023-04-28T10:00:24;12.40;;;5.80;;
54197;SDS011;40105;52.366;17.000;2023-04-28T10:02:49;9.98;;;5.45;;
54197;SDS011;40105;52.366;17.000;2023-04-28T10:05:15;12.60;;;5.22;;
54197;SDS011;40105;52.366;17.000;2023-04-28T10:07:40;15.30;;;5.80;;
54197;SDS011;40105;52.366;17.000;2023-04-28T10:10:06;13.60;;;6.23;;
54197;SDS011;40105;52.366;17.000;2023-04-28T10:12:31;21.23;;;5.95;;
54197;SDS011;40105;52.366;17.000;2023-04-28T10:14:57;23.93;;;7.53;;
54197;SDS011;40105;52.366;17.000;2023-04-28T10:17:22;16.57;;;6.63;;
54197;SDS011;40105;52.366;17.000;2023-04-28T10:19:51;14.48;;;6.40;;
54197;SDS011;40105;52.366;17.000;2023-04-28T10:27:28;17.02;;;6.70;;
54197;SDS011;40105;52.366;17.000;2023-04-28T10:29:54;14.93;;;7.10;;
54197;SDS011;40105;52.366;17.000;2023-04-28T10:32:20;12.37;;;6.57;;
54197;SDS011;40105;52.366;17.000;2023-04-28T10:34:45;18.63;;;7.10;;
54197;SDS011;40105;52.366;17.000;2023-04-28T10:37:12;18.58;;;6.95;;
54197;SDS011;40105;52.366;17.000;2023-04-28T10:39:39;18.40;;;6.35;;
54197;SDS011;40105;52.366;17.000;2023-04-28T10:42:04;18.63;;;6.82;;
54197;SDS011;40105;52.366;17.000;2023-04-28T10:46:58;15.93;;;7.37;;
54197;SDS011;40105;52.366;17.000;2023-04-28T10:49:53;16.52;;;6.22;;
54197;SDS011;40105;52.366;17.000;2023-04-28T10:57:37;14.43;;;7.13;;
54197;SDS011;40105;52.366;17.000;2023-04-28T11:00:25;13.93;;;7.40;;
54197;SDS011;40105;52.366;17.000;2023-04-28T11:02:51;15.90;;;6.15;;
54197;SDS011;40105;52.366;17.000;2023-04-28T11:05:16;14.63;;;6.70;;
54197;SDS011;40105;52.366;17.000;2023-04-28T11:08:11;16.23;;;7.38;;
54197;SDS011;40105;52.366;17.000;2023-04-28T11:10:51;16.33;;;6.50;;
54197;SDS011;40105;52.366;17.000;2023-04-28T11:13:26;15.27;;;6.45;;
54197;SDS011;40105;52.366;17.000;2023-04-28T11:16:03;15.82;;;6.55;;
54197;SDS011;40105;52.366;17.000;2023-04-28T11:18:31;14.95;;;7.53;;
54197;SDS011;40105;52.366;17.000;2023-04-28T11:21:02;12.45;;;6.88;;
54197;SDS011;40105;52.366;17.000;2023-04-28T11:23:27;13.70;;;7.50;;
54197;SDS011;40105;52.366;17.000;2023-04-28T11:25:56;17.63;;;7.00;;
54197;SDS011;40105;52.366;17.000;2023-04-28T11:28:22;11.57;;;6.57;;
54197;SDS011;40105;52.366;17.000;2023-04-28T11:30:47;15.13;;;7.50;;
54197;SDS011;40105;52.366;17.000;2023-04-28T11:33:12;14.02;;;6.68;;
54197;SDS011;40105;52.366;17.000;2023-04-28T11:35:40;26.90;;;6.90;;
54197;SDS011;40105;52.366;17.000;2023-04-28T11:38:06;16.58;;;6.78;;
54197;SDS011;40105;52.366;17.000;2023-04-28T11:40:31;21.47;;;6.77;;
54197;SDS011;40105;52.366;17.000;2023-04-28T11:42:56;15.50;;;7.30;;
54197;SDS011;40105;52.366;17.000;2023-04-28T11:45:23;17.27;;;6.55;;
54197;SDS011;40105;52.366;17.000;2023-04-28T11:47:48;12.82;;;6.75;;
54197;SDS011;40105;52.366;17.000;2023-04-28T11:50:13;16.07;;;6.60;;
54197;SDS011;40105;52.366;17.000;2023-04-28T11:52:49;16.58;;;6.43;;
54197;SDS011;40105;52.366;17.000;2023-04-28T11:55:17;23.10;;;6.72;;
54197;SDS011;40105;52.366;17.000;2023-04-28T11:57:42;19.38;;;7.30;;
54197;SDS011;40105;52.366;17.000;2023-04-28T12:00:14;15.27;;;6.97;;
54197;SDS011;40105;52.366;17.000;2023-04-28T12:02:43;18.83;;;6.93;;
54197;SDS011;40105;52.366;17.000;2023-04-28T12:05:08;19.93;;;7.30;;
54197;SDS011;40105;52.366;17.000;2023-04-28T12:07:41;19.75;;;9.00;;
54197;SDS011;40105;52.366;17.000;2023-04-28T12:10:11;17.58;;;7.65;;
54197;SDS011;40105;52.366;17.000;2023-04-28T12:12:36;12.48;;;6.53;;
54197;SDS011;40105;52.366;17.000;2023-04-28T12:15:03;12.33;;;6.87;;
54197;SDS011;40105;52.366;17.000;2023-04-28T12:20:00;21.60;;;6.97;;
54197;SDS011;40105;52.366;17.000;2023-04-28T12:22:26;13.93;;;7.30;;
54197;SDS011;40105;52.366;17.000;2023-04-28T12:25:07;18.10;;;7.80;;
54197;SDS011;40105;52.366;17.000;2023-04-28T12:27:33;19.48;;;7.13;;
54197;SDS011;40105;52.366;17.000;2023-04-28T12:29:59;19.02;;;6.95;;
54197;SDS011;40105;52.366;17.000;2023-04-28T12:32:37;24.55;;;7.80;;
54197;SDS011;40105;52.366;17.000;2023-04-28T12:35:03;32.88;;;6.55;;
54197;SDS011;40105;52.366;17.000;2023-04-28T12:37:30;14.40;;;7.00;;
54197;SDS011;40105;52.366;17.000;2023-04-28T12:39:55;14.30;;;6.80;;
54197;SDS011;40105;52.366;17.000;2023-04-28T12:42:20;22.90;;;8.93;;
54197;SDS011;40105;52.366;17.000;2023-04-28T12:44:47;21.60;;;8.25;;
54197;SDS011;40105;52.366;17.000;2023-04-28T12:47:12;17.77;;;7.88;;
54197;SDS011;40105;52.366;17.000;2023-04-28T12:49:38;17.48;;;8.88;;
54197;SDS011;40105;52.366;17.000;2023-04-28T12:52:04;14.27;;;7.90;;
54197;SDS011;40105;52.366;17.000;2023-04-28T12:54:29;32.30;;;8.00;;
54197;SDS011;40105;52.366;17.000;2023-04-28T12:56:55;13.20;;;6.27;;
54197;SDS011;40105;52.366;17.000;2023-04-28T12:59:20;15.57;;;7.40;;
54197;SDS011;40105;52.366;17.000;2023-04-28T13:01:45;14.50;;;7.13;;
54197;SDS011;40105;52.366;17.000;2023-04-28T13:04:11;15.27;;;7.07;;
54197;SDS011;40105;52.366;17.000;2023-04-28T13:06:36;18.17;;;7.03;;
54197;SDS011;40105;52.366;17.000;2023-04-28T13:09:02;15.68;;;6.45;;
54197;SDS011;40105;52.366;17.000;2023-04-28T13:11:27;16.08;;;7.60;;
54197;SDS011;40105;52.366;17.000;2023-04-28T13:13:52;12.43;;;6.85;;
54197;SDS011;40105;52.366;17.000;2023-04-28T13:16:18;19.33;;;7.63;;
54197;SDS011;40105;52.366;17.000;2023-04-28T13:18:43;24.05;;;7.30;;
54197;SDS011;40105;52.366;17.000;2023-04-28T13:21:08;18.43;;;7.47;;
54197;SDS011;40105;52.366;17.000;2023-04-28T13:23:33;16.10;;;7.33;;
54197;SDS011;40105;52.366;17.000;2023-04-28T13:25:59;15.77;;;7.43;;
54197;SDS011;40105;52.366;17.000;2023-04-28T13:28:24;14.13;;;6.82;;
54197;SDS011;40105;52.366;17.000;2023-04-28T13:30:49;17.20;;;8.13;;
54197;SDS011;40105;52.366;17.000;2023-04-28T13:33:15;15.85;;;6.80;;
54197;SDS011;40105;52.366;17.000;2023-04-28T13:35:40;19.63;;;7.03;;
54197;SDS011;40105;52.366;17.000;2023-04-28T13:38:06;14.18;;;7.13;;
54197;SDS011;40105;52.366;17.000;2023-04-28T13:40:31;19.27;;;8.77;;
54197;SDS011;40105;52.366;17.000;2023-04-28T13:42:57;21.10;;;7.28;;
54197;SDS011;40105;52.366;17.000;2023-04-28T13:45:22;17.63;;;6.87;;
54197;SDS011;40105;52.366;17.000;2023-04-28T13:47:48;20.50;;;5.63;;
54197;SDS011;40105;52.366;17.000;2023-04-28T13:50:13;19.10;;;6.93;;
54197;SDS011;40105;52.366;17.000;2023-04-28T13:52:38;17.13;;;6.80;;
54197;SDS011;40105;52.366;17.000;2023-04-28T13:55:03;19.57;;;5.90;;
54197;SDS011;40105;52.366;17.000;2023-04-28T13:57:29;10.02;;;5.63;;
54197;SDS011;40105;52.366;17.000;2023-04-28T13:59:54;13.83;;;5.60;;
54197;SDS011;40105;52.366;17.000;2023-04-28T14:02:19;16.45;;;5.80;;
54197;SDS011;40105;52.366;17.000;2023-04-28T14:04:45;11.00;;;5.37;;
54197;SDS011;40105;52.366;17.000;2023-04-28T14:07:13;15.45;;;6.28;;
54197;SDS011;40105;52.366;17.000;2023-04-28T14:09:38;21.33;;;7.20;;
54197;SDS011;40105;52.366;17.000;2023-04-28T14:12:04;22.27;;;6.22;;
54197;SDS011;40105;52.366;17.000;2023-04-28T14:14:30;17.10;;;5.20;;
54197;SDS011;40105;52.366;17.000;2023-04-28T14:16:55;17.63;;;5.03;;
54197;SDS011;40105;52.366;17.000;2023-04-28T14:19:20;12.80;;;5.10;;
54197;SDS011;40105;52.366;17.000;2023-04-28T14:21:46;15.98;;;4.70;;
54197;SDS011;40105;52.366;17.000;2023-04-28T14:24:11;12.25;;;5.40;;
54197;SDS011;40105;52.366;17.000;2023-04-28T14:26:36;11.77;;;5.07;;
54197;SDS011;40105;52.366;17.000;2023-04-28T14:29:02;18.13;;;5.47;;